Airfield :
LOGIN :

Register | Disclaimer

   EN    FR    IT 

 










Legend :    VFR   Marginal VFR   IFR   Intensive IFR   Very Intensive IFR
Visi :
Ceiling :
>= 8 km
>= 3000ft
5 to 8 km
1000 to 3000 ft
1500m to 5 km
500 to 1000 ft
800 to 1500m
200 to 500 ft
< 800m
< 200 ft
Symbols :   Thunderstorms  Fog  Heavy snow  Heavy precipitations  Wind > 20 kt
SIGMETs :     Misc.  Thunderstorms  Icing  Turbulence  Mountain Waves  Volcanic Ashes






- Airport Elevation : 456 ft
- IATA code : QPZ


LIMS - San Damiano Air Base Piacenza

CURRENT METAR :
  • 261355Z 01004KT 9999 FEW040 25/16 Q1016

EXPIRED METARs :
  • 261255Z 06001KT 9999 FEW040 24/17 Q1017 RMK SCT VIS MIN 9999 WIND THR30 03003KT BLU
  • 261155Z 03005KT 9999 FEW040 24/17 Q1017 RMK BKN SCT200 VIS MIN 9999 WIND THR30 02005KT BLU
  • 261055Z 27004KT 9999 FEW040 23/17 Q1017 RMK SCT SCT200 VIS MIN 9999 WIND THR30 03003KT BLU
  • 260955Z 34003KT 9999 FEW040 22/16 Q1017 RMK FEW VIS MIN 9999 WIND THR30 06003KT BLU

Expired Forecast.



MET'MAP, your aeronautical weather chart ! - Copyright ORBIFLY December 2007 - Disclaimer

ORBIFLY MET'MAP TEAM :

Programming & Development : Alexandra Zaïnal
Original concept : Baudouin d'Aumeries
Technical & hardware support : Manuel Goepfert
Assistance : Marc-Olivier Méhu




SOURCES & CREDITS :

   NOAA